createdAt,value
2022-08-26T00:00:48.152Z,95369.91
2022-08-26T00:03:16.233Z,95370.19
2022-08-26T00:05:45.193Z,95368.06
2022-08-26T00:08:15.066Z,95371.84
2022-08-26T00:10:42.874Z,95371.31
2022-08-26T00:13:10.974Z,95373.50
2022-08-26T00:15:38.738Z,95361.34
2022-08-26T00:18:05.877Z,95364.81
2022-08-26T00:20:49.323Z,95361.09
2022-08-26T00:23:15.920Z,95363.81
2022-08-26T00:25:42.794Z,95358.00
2022-08-26T00:28:12.293Z,95353.16
2022-08-26T00:30:39.215Z,95354.47
2022-08-26T00:33:05.893Z,95355.03
2022-08-26T00:35:33.533Z,95354.84
2022-08-26T00:38:01.198Z,95355.88
2022-08-26T00:40:38.337Z,95361.81
2022-08-26T00:43:09.426Z,95370.75
2022-08-26T00:45:59.648Z,95366.69
2022-08-26T00:48:32.156Z,95364.03
2022-08-26T00:51:11.623Z,95360.50
2022-08-26T00:53:45.601Z,95367.81
2022-08-26T00:56:29.143Z,95368.91
2022-08-26T00:59:00.358Z,95362.78
2022-08-26T01:01:26.883Z,95366.28
2022-08-26T01:03:54.779Z,95363.84
2022-08-26T01:06:24.800Z,95369.53
2022-08-26T01:08:52.653Z,95370.59
2022-08-26T01:11:20.545Z,95373.84
2022-08-26T01:13:52.125Z,95375.47
2022-08-26T01:16:18.862Z,95381.94
2022-08-26T01:18:48.320Z,95379.78
2022-08-26T01:21:47.186Z,95382.47
2022-08-26T01:24:14.754Z,95384.63
2022-08-26T01:26:44.434Z,95380.31
2022-08-26T01:29:17.519Z,95383.28
2022-08-26T01:31:54.447Z,95378.16
2022-08-26T01:34:26.118Z,95378.22
2022-08-26T01:37:00.915Z,95378.75
2022-08-26T01:39:27.440Z,95375.53
2022-08-26T01:41:57.882Z,95372.53
2022-08-26T01:44:34.690Z,95375.53
2022-08-26T01:47:02.288Z,95375.81
2022-08-26T01:49:34.965Z,95373.16
2022-08-26T01:52:05.151Z,95370.16
2022-08-26T01:54:33.223Z,95381.78
2022-08-26T01:57:01.399Z,95386.88
2022-08-26T01:59:30.075Z,95383.69
2022-08-26T02:01:57.196Z,95386.63
2022-08-26T02:04:33.613Z,95391.75
2022-08-26T02:07:06.200Z,95395.00
2022-08-26T02:09:41.209Z,95383.13
2022-08-26T02:12:10.683Z,95393.91
2022-08-26T02:14:44.610Z,95383.16
2022-08-26T02:17:11.666Z,95386.09
2022-08-26T02:19:45.099Z,95389.34
2022-08-26T02:22:17.704Z,95389.06
2022-08-26T02:24:56.928Z,95392.84
2022-08-26T02:27:28.281Z,95394.19
2022-08-26T02:30:06.184Z,95393.38
2022-08-26T02:32:32.895Z,95396.88
2022-08-26T02:34:59.400Z,95391.75
2022-08-26T02:37:30.812Z,95392.84
2022-08-26T02:39:57.599Z,95392.31
2022-08-26T02:42:24.172Z,95386.91
2022-08-26T02:44:51.515Z,95390.13
2022-08-26T02:47:18.123Z,95386.66
2022-08-26T02:49:47.450Z,95381.25
2022-08-26T02:52:14.864Z,95383.94
2022-08-26T02:54:41.435Z,95384.75
2022-08-26T02:57:09.048Z,95385.28
2022-08-26T02:59:35.561Z,95383.13
2022-08-26T03:02:02.579Z,95384.19
2022-08-26T03:04:29.711Z,95382.59
2022-08-26T03:07:00.114Z,95378.81
2022-08-26T03:09:27.045Z,95382.84
2022-08-26T03:11:53.721Z,95375.06
2022-08-26T03:14:20.316Z,95375.06
2022-08-26T03:16:48.436Z,95380.72
2022-08-26T03:19:15.183Z,95378.56
2022-08-26T03:21:44.990Z,95372.34
2022-08-26T03:24:14.203Z,95379.34
2022-08-26T03:26:41.076Z,95383.69
2022-08-26T03:29:19.554Z,95383.13
2022-08-26T03:31:47.091Z,95385.03
2022-08-26T03:34:14.135Z,95377.19
2022-08-26T03:36:41.652Z,95375.03
2022-08-26T03:39:08.466Z,95370.72
2022-08-26T03:41:36.286Z,95375.00
2022-08-26T03:44:07.939Z,95376.94
2022-08-26T03:46:35.226Z,95381.19
2022-08-26T03:49:03.623Z,95389.53
2022-08-26T03:51:30.124Z,95385.75
2022-08-26T03:53:57.959Z,95382.78
2022-08-26T03:56:24.728Z,95385.75
2022-08-26T03:58:53.420Z,95384.66
2022-08-26T04:01:20.717Z,95383.59
2022-08-26T04:03:48.180Z,95383.06
2022-08-26T04:06:14.954Z,95391.94
2022-08-26T04:08:43.443Z,95386.28
2022-08-26T04:11:19.735Z,95389.50
2022-08-26T04:13:47.335Z,95391.63
2022-08-26T04:16:15.524Z,95391.63
2022-08-26T04:18:46.877Z,95390.53
2022-08-26T04:21:15.389Z,95391.06
2022-08-26T04:23:47.120Z,95389.97
2022-08-26T04:26:13.961Z,95391.06
2022-08-26T04:28:40.438Z,95396.16
2022-08-26T04:31:11.616Z,95391.59
2022-08-26T04:33:41.584Z,95391.03
2022-08-26T04:36:09.659Z,95389.97
2022-08-26T04:38:36.668Z,95401.25
2022-08-26T04:41:05.464Z,95392.38
2022-08-26T04:43:32.179Z,95396.69
2022-08-26T04:46:04.282Z,95391.59
2022-08-26T04:48:32.610Z,95401.03
2022-08-26T04:50:59.754Z,95397.03
2022-08-26T04:53:27.872Z,95391.34
2022-08-26T04:55:55.265Z,95398.63
2022-08-26T04:58:24.485Z,95398.63
2022-08-26T05:00:54.950Z,95397.56
2022-08-26T05:03:23.336Z,95392.75
2022-08-26T05:05:50.924Z,95388.41
2022-08-26T05:08:19.550Z,95391.66
2022-08-26T05:10:50.781Z,95384.66
2022-08-26T05:13:20.520Z,95388.16
2022-08-26T05:15:48.647Z,95387.38
2022-08-26T05:18:20.030Z,95393.31
2022-08-26T05:20:53.907Z,95393.28
2022-08-26T05:23:22.691Z,95393.31
2022-08-26T05:25:55.849Z,95395.75
2022-08-26T05:28:26.500Z,95397.63
2022-08-26T05:30:54.315Z,95397.66
2022-08-26T05:33:20.859Z,95397.41
2022-08-26T05:35:48.617Z,95384.75
2022-08-26T05:38:18.820Z,95386.38
2022-08-26T05:40:48.277Z,95390.69
2022-08-26T05:43:16.536Z,95407.13
2022-08-26T05:45:50.555Z,95395.56
2022-08-26T05:48:24.167Z,95401.19
2022-08-26T05:50:52.937Z,95405.50
2022-08-26T05:53:22.057Z,95406.31
2022-08-26T05:55:53.693Z,95418.72
2022-08-26T05:58:22.816Z,95409.53
2022-08-26T06:01:12.807Z,95411.69
2022-08-26T06:03:44.131Z,95411.44
2022-08-26T06:06:20.140Z,95406.06
2022-08-26T06:08:47.758Z,95420.84
2022-08-26T06:11:18.338Z,95414.66
2022-08-26T06:13:46.015Z,95416.00
2022-08-26T06:16:16.282Z,95426.78
2022-08-26T06:18:45.892Z,95421.41
2022-08-26T06:21:15.235Z,95417.63
2022-08-26T06:23:42.791Z,95421.41
2022-08-26T06:26:11.207Z,95430.56
2022-08-26T06:28:37.895Z,95421.41
2022-08-26T06:31:04.608Z,95419.78
2022-08-26T06:33:31.147Z,95420.34
2022-08-26T06:35:58.234Z,95427.88
2022-08-26T06:38:25.466Z,95424.66
2022-08-26T06:40:54.194Z,95428.41
2022-08-26T06:43:24.809Z,95428.44
2022-08-26T06:45:52.319Z,95433.00
2022-08-26T06:48:20.480Z,95438.66
2022-08-26T06:50:47.930Z,95438.94
2022-08-26T06:53:16.669Z,95441.06
2022-08-26T06:55:45.725Z,95444.03
2022-08-26T06:58:13.481Z,95443.78
2022-08-26T07:00:40.585Z,95447.31
2022-08-26T07:03:13.752Z,95443.50
2022-08-26T07:05:40.303Z,95451.03
2022-08-26T07:08:06.892Z,95454.81
2022-08-26T07:10:33.390Z,95452.44
2022-08-26T07:13:00.444Z,95456.16
2022-08-26T07:15:31.005Z,95449.88
2022-08-26T07:17:58.091Z,95457.81
2022-08-26T07:20:24.748Z,95452.22
2022-08-26T07:22:51.525Z,95461.97
2022-08-26T07:25:19.356Z,95462.25
2022-08-26T07:27:46.835Z,95465.31
2022-08-26T07:30:20.950Z,95459.41
2022-08-26T07:32:47.467Z,95464.75
2022-08-26T07:35:14.859Z,95464.56
2022-08-26T07:37:42.730Z,95473.22
2022-08-26T07:40:10.103Z,95470.53
2022-08-26T07:42:36.662Z,95477.16
2022-08-26T07:45:03.926Z,95470.78
2022-08-26T07:47:30.457Z,95474.53
2022-08-26T07:49:57.866Z,95480.59
2022-08-26T07:52:27.889Z,95478.09
2022-08-26T07:54:58.504Z,95476.69
2022-08-26T07:57:26.544Z,95471.31
2022-08-26T07:59:55.204Z,95478.19
2022-08-26T08:02:23.144Z,95479.97
2022-08-26T08:04:49.667Z,95479.00
2022-08-26T08:07:16.189Z,95481.81
2022-08-26T08:09:42.736Z,95474.31
2022-08-26T08:12:09.287Z,95476.69
2022-08-26T08:14:41.287Z,95479.25
2022-08-26T08:17:08.569Z,95478.72
2022-08-26T08:19:37.021Z,95466.09
2022-08-26T08:22:17.058Z,95474.38
2022-08-26T08:24:44.324Z,95474.84
2022-08-26T08:27:10.944Z,95465.81
2022-08-26T08:29:38.670Z,95474.06
2022-08-26T08:32:05.633Z,95466.63
2022-08-26T08:34:38.186Z,95473.03
2022-08-26T08:37:08.642Z,95463.81
2022-08-26T08:39:37.656Z,95467.13
2022-08-26T08:42:32.865Z,95467.13
2022-08-26T08:45:10.383Z,95471.25
2022-08-26T08:47:41.825Z,95478.53
2022-08-26T08:50:31.034Z,95476.38
2022-08-26T08:53:21.718Z,95476.38
2022-08-26T08:56:04.863Z,95485.00
2022-08-26T08:59:03.784Z,95485.00
2022-08-26T09:01:42.380Z,95480.19
2022-08-26T09:04:24.114Z,95485.59
2022-08-26T09:06:55.575Z,95484.81
2022-08-26T09:09:41.347Z,95497.41
2022-08-26T09:12:19.462Z,95495.25
2022-08-26T09:14:49.059Z,95491.47
2022-08-26T09:17:53.700Z,95493.59
2022-08-26T09:20:32.481Z,95503.78
2022-08-26T09:22:59.363Z,95505.59
2022-08-26T09:25:26.203Z,95499.47
2022-08-26T09:27:53.967Z,95504.78
2022-08-26T09:30:31.427Z,95497.31
2022-08-26T09:33:10.076Z,95495.81
2022-08-26T09:35:39.811Z,95499.66
2022-08-26T09:38:26.778Z,95507.47
2022-08-26T09:41:03.718Z,95508.28
2022-08-26T09:43:32.692Z,95507.13
2022-08-26T09:46:21.982Z,95503.13
2022-08-26T09:48:53.054Z,95510.00
2022-08-26T09:51:19.735Z,95504.63
2022-08-26T09:53:57.427Z,95499.38
2022-08-26T09:56:28.309Z,95509.41
2022-08-26T09:58:56.622Z,95502.31
2022-08-26T10:01:23.297Z,95501.69
2022-08-26T10:03:51.045Z,95504.47
2022-08-26T10:06:17.581Z,95495.13
2022-08-26T10:08:57.229Z,95501.91
2022-08-26T10:11:47.203Z,95498.22
2022-08-26T10:14:24.978Z,95497.16
2022-08-26T10:17:03.287Z,95492.34
2022-08-26T10:19:55.958Z,95486.28
2022-08-26T10:22:38.825Z,95482.84
2022-08-26T10:25:12.851Z,95482.66
2022-08-26T10:27:53.840Z,95487.97
2022-08-26T10:30:26.060Z,95489.59
2022-08-26T10:33:00.917Z,95494.91
2022-08-26T10:35:27.744Z,95489.25
2022-08-26T10:38:16.725Z,95488.00
2022-08-26T10:40:57.533Z,95484.97
2022-08-26T10:43:40.901Z,95492.28
2022-08-26T10:46:16.453Z,95483.66
2022-08-26T10:48:57.565Z,95492.81
2022-08-26T10:51:34.559Z,95482.88
2022-08-26T10:54:09.519Z,95487.66
2022-08-26T10:56:53.493Z,95479.31
2022-08-26T10:59:43.075Z,95481.41
2022-08-26T11:02:35.372Z,95482.94
2022-08-26T11:05:05.564Z,95480.94
2022-08-26T11:07:42.633Z,95473.06
2022-08-26T11:10:38.286Z,95481.72
2022-08-26T11:13:06.606Z,95475.84
2022-08-26T11:15:33.045Z,95474.22
2022-08-26T11:18:03.086Z,95494.56
2022-08-26T11:20:37.587Z,95479.56
2022-08-26T11:23:20.346Z,95492.25
2022-08-26T11:25:57.212Z,95484.91
2022-08-26T11:28:35.923Z,95481.19
2022-08-26T11:31:04.788Z,95480.22
2022-08-26T11:34:01.575Z,95475.38
2022-08-26T11:36:34.454Z,95471.84
2022-08-26T11:39:21.319Z,95477.50
2022-08-26T11:41:52.954Z,95477.19
2022-08-26T11:44:40.782Z,95469.41
2022-08-26T11:47:07.858Z,95459.09
2022-08-26T11:49:38.872Z,95459.66
2022-08-26T11:52:18.418Z,95467.75
2022-08-26T11:55:01.795Z,95460.47
2022-08-26T11:57:30.220Z,95453.66
2022-08-26T11:59:57.488Z,95454.63
2022-08-26T12:02:25.015Z,95451.84
2022-08-26T12:04:55.596Z,95447.59
2022-08-26T12:07:28.349Z,95449.88
2022-08-26T12:10:04.406Z,95445.09
2022-08-26T12:12:36.264Z,95445.78
2022-08-26T12:15:14.049Z,95442.72
2022-08-26T12:17:42.219Z,95445.63
2022-08-26T12:20:33.014Z,95445.00
2022-08-26T12:22:59.562Z,95446.41
2022-08-26T12:25:26.735Z,95446.28
2022-08-26T12:27:54.173Z,95443.88
2022-08-26T12:30:23.738Z,95444.97
2022-08-26T12:33:10.829Z,95440.72
2022-08-26T12:35:52.861Z,95429.78
2022-08-26T12:38:22.250Z,95435.41
2022-08-26T12:40:48.951Z,95439.91
2022-08-26T12:43:37.100Z,95442.50
2022-08-26T12:46:04.334Z,95446.91
2022-08-26T12:48:37.842Z,95439.34
2022-08-26T12:51:09.228Z,95438.94
2022-08-26T12:53:43.228Z,95433.75
2022-08-26T12:56:38.658Z,95424.44
2022-08-26T12:59:22.064Z,95429.28
2022-08-26T13:01:48.672Z,95422.66
2022-08-26T13:04:41.432Z,95420.13
2022-08-26T13:07:23.673Z,95409.72
2022-08-26T13:09:52.886Z,95418.41
2022-08-26T13:12:39.622Z,95421.41
2022-08-26T13:15:08.088Z,95409.44
2022-08-26T13:17:34.622Z,95405.09
2022-08-26T13:20:03.800Z,95411.72
2022-08-26T13:22:31.716Z,95404.00
2022-08-26T13:24:58.302Z,95411.19
2022-08-26T13:27:26.772Z,95406.78
2022-08-26T13:29:54.866Z,95410.50
2022-08-26T13:32:22.267Z,95412.94
2022-08-26T13:34:54.888Z,95418.94
2022-08-26T13:37:21.589Z,95409.50
2022-08-26T13:39:51.218Z,95410.53
2022-08-26T13:42:17.780Z,95410.31
2022-08-26T13:44:44.478Z,95398.75
2022-08-26T13:47:10.981Z,95398.63
2022-08-26T13:49:37.486Z,95398.91
2022-08-26T13:52:04.057Z,95390.50
2022-08-26T13:54:30.708Z,95384.97
2022-08-26T13:56:57.226Z,95395.09
2022-08-26T13:59:23.816Z,95386.13
2022-08-26T14:01:50.330Z,95381.31
2022-08-26T14:04:16.822Z,95384.09
2022-08-26T14:06:49.857Z,95389.19
2022-08-26T14:09:16.366Z,95375.16
2022-08-26T14:11:50.800Z,95376.31
2022-08-26T14:14:21.434Z,95374.47
2022-08-26T14:16:58.983Z,95368.41
2022-08-26T14:19:30.550Z,95369.28
2022-08-26T14:21:57.336Z,95359.03
2022-08-26T14:24:23.839Z,95363.50
2022-08-26T14:26:50.358Z,95355.09
2022-08-26T14:29:17.116Z,95358.38
2022-08-26T14:31:43.884Z,95355.88
2022-08-26T14:34:13.766Z,95357.47
2022-08-26T14:36:40.286Z,95356.16
2022-08-26T14:39:10.437Z,95356.16
2022-08-26T14:41:54.399Z,95360.19
2022-08-26T14:44:25.872Z,95349.16
2022-08-26T14:46:53.916Z,95353.25
2022-08-26T14:49:22.701Z,95349.09
2022-08-26T14:51:49.986Z,95341.81
2022-08-26T14:54:18.255Z,95346.88
2022-08-26T14:56:57.320Z,95351.25
2022-08-26T14:59:30.817Z,95347.19
2022-08-26T15:01:57.641Z,95348.81
2022-08-26T15:04:25.052Z,95340.34
2022-08-26T15:06:54.513Z,95346.69
2022-08-26T15:09:22.295Z,95341.16
2022-08-26T15:11:49.328Z,95347.59
2022-08-26T15:14:19.408Z,95346.78
2022-08-26T15:16:52.279Z,95341.06
2022-08-26T15:19:19.833Z,95343.72
2022-08-26T15:21:47.427Z,95338.28
2022-08-26T15:24:17.032Z,95338.78
2022-08-26T15:26:44.875Z,95337.88
2022-08-26T15:29:11.584Z,95336.78
2022-08-26T15:31:38.191Z,95342.56
2022-08-26T15:34:08.555Z,95344.38
2022-08-26T15:36:38.331Z,95339.44
2022-08-26T15:39:07.430Z,95333.66
2022-08-26T15:41:35.119Z,95324.19
2022-08-26T15:44:03.571Z,95315.41
2022-08-26T15:46:31.209Z,95313.97
2022-08-26T15:48:57.870Z,95316.94
2022-08-26T15:51:31.290Z,95314.16
2022-08-26T15:53:58.886Z,95314.38
2022-08-26T15:56:31.646Z,95320.03
2022-08-26T15:58:59.136Z,95326.44
2022-08-26T16:01:28.570Z,95333.63
2022-08-26T16:03:55.946Z,95331.69
2022-08-26T16:06:25.905Z,95333.41
2022-08-26T16:08:52.456Z,95331.19
2022-08-26T16:11:19.104Z,95333.28
2022-08-26T16:13:46.226Z,95332.56
2022-08-26T16:16:12.791Z,95341.72
2022-08-26T16:18:39.306Z,95356.59
2022-08-26T16:21:13.192Z,95358.91
2022-08-26T16:23:40.738Z,95354.72
2022-08-26T16:26:18.888Z,95360.28
2022-08-26T16:28:46.187Z,95355.69
2022-08-26T16:31:13.500Z,95331.88
2022-08-26T16:33:40.293Z,95343.84
2022-08-26T16:36:08.876Z,95351.78
2022-08-26T16:38:37.306Z,95334.75
2022-08-26T16:41:04.577Z,95339.75
2022-08-26T16:43:31.158Z,95343.63
2022-08-26T16:45:57.853Z,95351.78
2022-08-26T16:48:24.492Z,95343.06
2022-08-26T16:50:51.336Z,95336.22
2022-08-26T16:53:17.923Z,95337.16
2022-08-26T16:55:46.009Z,95339.28
2022-08-26T16:58:12.568Z,95337.91
2022-08-26T17:00:39.066Z,95336.31
2022-08-26T17:03:05.660Z,95336.63
2022-08-26T17:05:32.351Z,95337.34
2022-08-26T17:08:00.250Z,95328.25
2022-08-26T17:10:28.450Z,95329.16
2022-08-26T17:12:55.301Z,95327.56
2022-08-26T17:15:22.294Z,95331.38
2022-08-26T17:17:49.322Z,95333.84
2022-08-26T17:20:17.386Z,95337.38
2022-08-26T17:22:46.945Z,95337.47
2022-08-26T17:25:22.779Z,95339.28
2022-08-26T17:27:50.550Z,95334.66
2022-08-26T17:30:17.938Z,95338.00
2022-08-26T17:32:45.235Z,95335.38
2022-08-26T17:35:13.104Z,95327.81
2022-08-26T17:37:40.821Z,95338.47
2022-08-26T17:40:12.670Z,95329.34
2022-08-26T17:42:40.105Z,95322.78
2022-08-26T17:45:08.431Z,95325.63
2022-08-26T17:47:35.933Z,95327.25
2022-08-26T17:50:05.843Z,95331.63
2022-08-26T17:52:32.623Z,95329.00
2022-08-26T17:54:59.113Z,95330.13
2022-08-26T17:57:25.669Z,95324.38
2022-08-26T17:59:53.487Z,95331.38
2022-08-26T18:02:20.299Z,95330.19
2022-08-26T18:04:47.074Z,95327.66
2022-08-26T18:07:14.418Z,95330.13
2022-08-26T18:09:40.944Z,95331.81
2022-08-26T18:12:07.933Z,95331.88
2022-08-26T18:14:34.678Z,95331.31
2022-08-26T18:17:01.760Z,95326.66
2022-08-26T18:19:28.308Z,95338.63
2022-08-26T18:21:54.938Z,95344.75
2022-08-26T18:24:21.622Z,95340.91
2022-08-26T18:26:48.120Z,95348.44
2022-08-26T18:29:16.104Z,95346.22
2022-08-26T18:31:43.045Z,95358.72
2022-08-26T18:34:10.478Z,95353.88
2022-08-26T18:36:36.981Z,95357.09
2022-08-26T18:39:05.981Z,95364.19
2022-08-26T18:41:37.994Z,95354.41
2022-08-26T18:44:04.492Z,95369.50
2022-08-26T18:46:31.151Z,95359.25
2022-08-26T18:48:57.848Z,95367.91
2022-08-26T18:51:30.041Z,95374.91
2022-08-26T18:53:58.149Z,95373.31
2022-08-26T18:56:24.861Z,95370.06
2022-08-26T18:58:51.730Z,95373.34
2022-08-26T19:01:19.654Z,95374.94
2022-08-26T19:03:48.285Z,95372.47
2022-08-26T19:06:21.332Z,95370.59
2022-08-26T19:08:49.736Z,95374.19
2022-08-26T19:11:18.285Z,95373.06
2022-08-26T19:14:00.766Z,95375.56
2022-08-26T19:16:28.309Z,95376.53
2022-08-26T19:18:56.833Z,95374.38
2022-08-26T19:21:23.391Z,95374.91
2022-08-26T19:23:50.563Z,95374.88
2022-08-26T19:26:17.906Z,95377.06
2022-08-26T19:28:44.601Z,95373.84
2022-08-26T19:31:12.156Z,95379.28
2022-08-26T19:33:41.179Z,95379.50
2022-08-26T19:36:12.641Z,95385.44
2022-08-26T19:38:41.150Z,95376.03
2022-08-26T19:41:10.855Z,95376.09
2022-08-26T19:43:37.448Z,95383.91
2022-08-26T19:46:16.931Z,95385.53
2022-08-26T19:48:44.565Z,95389.53
2022-08-26T19:51:23.133Z,95385.25
2022-08-26T19:53:50.848Z,95385.81
2022-08-26T19:56:18.551Z,95379.38
2022-08-26T19:58:46.184Z,95389.59
2022-08-26T20:01:14.331Z,95388.50
2022-08-26T20:03:42.321Z,95391.72
2022-08-26T20:06:11.926Z,95391.59
2022-08-26T20:08:40.099Z,95391.63
2022-08-26T20:11:11.551Z,95393.75
2022-08-26T20:13:38.422Z,95390.53
2022-08-26T20:16:05.503Z,95390.59
2022-08-26T20:18:32.009Z,95388.47
2022-08-26T20:20:58.498Z,95376.94
2022-08-26T20:23:25.026Z,95380.97
2022-08-26T20:25:51.541Z,95379.91
2022-08-26T20:28:18.038Z,95380.97
2022-08-26T20:30:44.526Z,95386.63
2022-08-26T20:33:11.084Z,95391.75
2022-08-26T20:35:37.590Z,95389.31
2022-08-26T20:38:04.090Z,95383.69
2022-08-26T20:40:30.697Z,95384.78
2022-08-26T20:42:57.760Z,95386.66
2022-08-26T20:45:24.251Z,95388.00
2022-08-26T20:47:50.751Z,95389.06
2022-08-26T20:50:17.316Z,95392.84
2022-08-26T20:52:43.831Z,95393.38
2022-08-26T20:55:11.823Z,95397.69
2022-08-26T20:57:38.346Z,95390.44
2022-08-26T21:00:06.192Z,95402.50
2022-08-26T21:02:33.770Z,95406.09
2022-08-26T21:05:00.413Z,95402.41
2022-08-26T21:07:26.969Z,95392.66
2022-08-26T21:09:54.179Z,95401.31
2022-08-26T21:12:20.695Z,95404.28
2022-08-26T21:14:49.678Z,95399.19
2022-08-26T21:17:16.668Z,95407.81
2022-08-26T21:19:43.177Z,95404.22
2022-08-26T21:22:10.099Z,95414.78
2022-08-26T21:24:36.706Z,95413.22
2022-08-26T21:27:03.823Z,95400.19
2022-08-26T21:29:30.337Z,95408.38
2022-08-26T21:31:57.086Z,95412.72
2022-08-26T21:34:23.581Z,95406.19
2022-08-26T21:36:50.264Z,95404.63
2022-08-26T21:39:16.959Z,95416.28
2022-08-26T21:41:44.834Z,95405.75
2022-08-26T21:44:13.694Z,95403.63
2022-08-26T21:46:41.493Z,95408.94
2022-08-26T21:49:11.621Z,95399.53
2022-08-26T21:51:41.589Z,95401.81
2022-08-26T21:54:11.021Z,95399.13
2022-08-26T21:56:41.642Z,95402.94
2022-08-26T21:59:09.011Z,95400.53
2022-08-26T22:01:36.250Z,95402.16
2022-08-26T22:04:05.184Z,95396.00
2022-08-26T22:06:33.612Z,95397.06
2022-08-26T22:09:01.004Z,95399.78
2022-08-26T22:11:28.348Z,95405.16
2022-08-26T22:13:55.042Z,95405.16
2022-08-26T22:16:21.658Z,95403.53
2022-08-26T22:18:48.297Z,95402.44
2022-08-26T22:21:19.921Z,95402.44
2022-08-26T22:23:47.601Z,95398.91
2022-08-26T22:26:20.584Z,95404.84
2022-08-26T22:28:52.058Z,95400.25
2022-08-26T22:31:28.139Z,95400.78
2022-08-26T22:34:06.247Z,95406.16
2022-08-26T22:36:32.794Z,95406.16
2022-08-26T22:38:59.277Z,95414.25
2022-08-26T22:41:25.796Z,95407.78
2022-08-26T22:43:52.356Z,95409.06
2022-08-26T22:46:21.624Z,95412.59
2022-08-26T22:48:53.864Z,95421.22
2022-08-26T22:51:22.052Z,95416.34
2022-08-26T22:53:49.384Z,95414.75
2022-08-26T22:56:16.239Z,95412.00
2022-08-26T22:58:42.730Z,95413.13
2022-08-26T23:01:09.626Z,95421.72
2022-08-26T23:03:40.427Z,95419.53
2022-08-26T23:06:09.156Z,95421.94
2022-08-26T23:08:37.236Z,95415.66
2022-08-26T23:11:08.804Z,95419.94
2022-08-26T23:13:35.857Z,95405.38
2022-08-26T23:16:07.480Z,95409.56
2022-08-26T23:18:34.310Z,95406.78
2022-08-26T23:21:00.834Z,95402.09
2022-08-26T23:23:27.847Z,95400.44
2022-08-26T23:25:55.687Z,95396.22
2022-08-26T23:28:24.128Z,95406.72
2022-08-26T23:30:50.622Z,95399.38
2022-08-26T23:33:17.189Z,95394.59
2022-08-26T23:35:43.744Z,95399.28
2022-08-26T23:38:10.389Z,95398.94
2022-08-26T23:40:41.335Z,95395.78
2022-08-26T23:43:10.002Z,95389.56
2022-08-26T23:45:36.690Z,95386.56
2022-08-26T23:48:05.011Z,95384.06
2022-08-26T23:50:32.106Z,95379.72
2022-08-26T23:52:58.585Z,95380.44
2022-08-26T23:55:25.410Z,95376.19
2022-08-26T23:57:51.912Z,95376.66
